Pretty Lady — 9HVY9 — position and weather

sailwx.info

Track history (hours):
 
Tides and Currents Weather Stations Pressure Air Temp Water Temp Dewpoint Dewpoint Depression Visibility Wind Speed Wind Dir Waves Ship Positions

Pretty Lady

Last reported at 2015-Mar-31 21:19 UTC. Time now 2015-Mar-31 23:59 UTC.
Position N 35°59' W 005°11'.

Length 182 m; draft 11.4 m.

Type: Cargo ship. MMSI: 249617000.

Date/timePositionNaut miles runAvg speedWind from/ knotsBaromVisibWave heightAir tempDewpointWater temp
2015-Mar-31 21:19N 35°59' W 005°11'1013.2
2015-Mar-31 20:33N 35°58' W 005°23'12111.0
2015-Mar-31 09:33N 36°15' W 007°51'1110.6
2015-Mar-31 08:33N 36°18' W 008°03'1110.5
2015-Mar-31 07:33N 36°21' W 008°16'1010.3
2015-Mar-31 06:33N 36°24' W 008°28'1310.5
2015-Mar-31 05:22N 36°27' W 008°43'910.5
2015-Mar-31 04:33N 36°29' W 008°54'1110.8
2015-Mar-31 03:33N 36°32' W 009°06'1310.4
2015-Mar-31 02:18N 36°38' W 009°21'910.6
2015-Mar-31 01:24N 36°45' W 009°29'910.3
2015-Mar-31 00:33N 36°52' W 009°34'1110.5
2015-Mar-30 23:33N 37°02' W 009°37'1110.6
2015-Mar-30 22:31N 37°13' W 009°40'1010.5
2015-Mar-30 21:33N 37°23' W 009°43'1110.5
2015-Mar-30 20:33N 37°33' W 009°46'1110.8
2015-Mar-30 19:33N 37°44' W 009°49'1110.7
2015-Mar-30 18:33N 37°54' W 009°52'1110.8
2015-Mar-30 17:33N 38°05' W 009°55'1110.9
2015-Mar-30 16:32N 38°16' W 009°58'1110.7
2015-Mar-30 15:33N 38°26' W 010°01'1210.8
2015-Mar-30 14:27N 38°37' W 010°05'1010.9
2015-Mar-30 13:33N 38°47' W 010°06'1410.9
2015-Mar-30 12:17N 39°01' W 010°06'1010.6
2015-Mar-30 11:21N 39°11' W 010°06'3211.0
2015-Mar-30 08:26N 39°43' W 010°06'  
2015-Mar-27 09:15N 49°60' W 002°49'911.4
2015-Mar-27 08:29N 50°02' W 002°36'4212.9
2015-Mar-27 05:14N 50°14' W 001°33'812.0
2015-Mar-27 04:33N 50°16' W 001°21'1110.9
2015-Mar-27 03:31N 50°19' W 001°04'26 8.7
2015-Mar-27 00:31N 50°26' W 000°25'13 9.2
2015-Mar-26 23:04N 50°30' W 000°05'710.1
2015-Mar-26 22:22N 50°32' E 000°06'910.8
2015-Mar-26 21:33N 50°34' E 000°19'1111.2
2015-Mar-26 20:33N 50°38' E 000°36'1111.2
2015-Mar-26 19:33N 50°45' E 000°50'1010.4
2015-Mar-26 18:33N 50°51' E 001°03'10 9.5
2015-Mar-26 17:34N 50°57' E 001°14'8 8.1
2015-Mar-26 16:34N 51°02' E 001°25'8 7.7
2015-Mar-26 15:33N 51°07' E 001°34'8 8.4
2015-Mar-26 14:33N 51°13' E 001°44'1010.3
2015-Mar-26 13:33N 51°22' E 001°52'1111.4
2015-Mar-26 12:34N 51°31' E 002°02'1110.8
2015-Mar-26 11:33N 51°39' E 002°14'87 9.6
2015-Mar-26 02:33N 52°47' E 003°42'1211.7
2015-Mar-26 01:33N 52°56' E 003°55'1211.6
2015-Mar-26 00:33N 53°03' E 004°09'2310.5
2015-Mar-25 22:23N 53°22' E 004°32'910.0
2015-Mar-25 21:31N 53°30' E 004°36'2110.3
2015-Mar-25 19:27N 53°50' E 004°47'1011.0
2015-Mar-25 18:33N 54°00' E 004°51'1111.3
2015-Mar-25 17:33N 54°10' E 004°59'21010.9
2015-Mar-24 22:16N 57°10' E 008°10'2810.1
2015-Mar-24 19:28N 57°30' E 008°48'1110.5
2015-Mar-24 18:25N 57°35' E 009°06'3210.4
2015-Mar-24 15:18N 57°48' E 010°02'810.9
2015-Mar-24 14:33N 57°48' E 010°17'1110.6
2015-Mar-24 13:33N 57°48' E 010°37'10 9.9
2015-Mar-24 12:33N 57°45' E 010°54'1111.1
2015-Mar-24 11:33N 57°37' E 011°09'1110.9
2015-Mar-24 10:33N 57°30' E 011°23'1010.2
2015-Mar-24 09:33N 57°20' E 011°31'1010.2
2015-Mar-24 08:33N 57°11' E 011°38'1010.2
2015-Mar-24 07:33N 57°01' E 011°44'1010.2
2015-Mar-24 06:33N 56°51' E 011°50'8 8.2
2015-Mar-24 05:33N 56°43' E 011°50'1110.5
2015-Mar-24 04:33N 56°36' E 011°35'2110.1
2015-Mar-24 02:29N 56°23' E 011°06'59 9.9
2015-Mar-23 20:30N 55°24' E 011°01'10 9.6
2015-Mar-23 19:25N 55°14' E 011°06'8 9.6
2015-Mar-23 18:33N 55°06' E 010°59'11 9.7
2015-Mar-23 17:24N 54°56' E 010°53'17 9.1
2015-Mar-23 15:31N 54°39' E 010°52'1010.5
2015-Mar-23 14:33N 54°36' E 011°09'1111.3
2015-Mar-23 13:34N 54°31' E 011°27'1110.7
2015-Mar-23 12:33N 54°27' E 011°44'1010.5
2015-Mar-23 11:33N 54°26' E 012°02'9 8.8
2015-Mar-23 10:33N 54°32' E 012°14'9 8.8
2015-Mar-23 09:33N 54°39' E 012°22'1010.4
2015-Mar-23 08:33N 54°45' E 012°37'1010.4
2015-Mar-23 07:33N 54°50' E 012°53'1111.2
2015-Mar-23 06:33N 54°53' E 013°11'1111.2
2015-Mar-23 05:33N 54°57' E 013°30'1111.2
2015-Mar-23 04:33N 55°01' E 013°48'1111.2
2015-Mar-23 03:33N 55°06' E 014°06'1111.2
2015-Mar-23 02:33N 55°14' E 014°18'1111.2
2015-Mar-23 01:33N 55°23' E 014°30'1110.9
2015-Mar-23 00:33N 55°30' E 014°46'1111.3
2015-Mar-22 23:33N 55°35' E 015°03'1111.4
2015-Mar-22 22:33N 55°39' E 015°22'  
Track history (hours):
 
Tides and Currents Weather Stations Pressure Air Temp Water Temp Dewpoint Dewpoint Depression Visibility Wind Speed Wind Dir Waves Ship Positions

Pretty Lady

Last reported at 2015-Mar-31 21:19 UTC. Time now 2015-Mar-31 23:59 UTC.
Position N 35°59' W 005°11'.

Length 182 m; draft 11.4 m.

Type: Cargo ship. MMSI: 249617000.

Date/timePositionNaut miles runAvg speedWind from/ knotsBaromVisibWave heightAir tempDewpointWater temp
2015-Mar-31 21:19N 35°59' W 005°11'1013.2
2015-Mar-31 20:33N 35°58' W 005°23'12111.0
2015-Mar-31 09:33N 36°15' W 007°51'1110.6
2015-Mar-31 08:33N 36°18' W 008°03'1110.5
2015-Mar-31 07:33N 36°21' W 008°16'1010.3
2015-Mar-31 06:33N 36°24' W 008°28'1310.5
2015-Mar-31 05:22N 36°27' W 008°43'910.5
2015-Mar-31 04:33N 36°29' W 008°54'1110.8
2015-Mar-31 03:33N 36°32' W 009°06'1310.4
2015-Mar-31 02:18N 36°38' W 009°21'910.6
2015-Mar-31 01:24N 36°45' W 009°29'910.3
2015-Mar-31 00:33N 36°52' W 009°34'1110.5
2015-Mar-30 23:33N 37°02' W 009°37'1110.6
2015-Mar-30 22:31N 37°13' W 009°40'1010.5
2015-Mar-30 21:33N 37°23' W 009°43'1110.5
2015-Mar-30 20:33N 37°33' W 009°46'1110.8
2015-Mar-30 19:33N 37°44' W 009°49'1110.7
2015-Mar-30 18:33N 37°54' W 009°52'1110.8
2015-Mar-30 17:33N 38°05' W 009°55'1110.9
2015-Mar-30 16:32N 38°16' W 009°58'1110.7
2015-Mar-30 15:33N 38°26' W 010°01'1210.8
2015-Mar-30 14:27N 38°37' W 010°05'1010.9
2015-Mar-30 13:33N 38°47' W 010°06'1410.9
2015-Mar-30 12:17N 39°01' W 010°06'1010.6
2015-Mar-30 11:21N 39°11' W 010°06'3211.0
2015-Mar-30 08:26N 39°43' W 010°06'  
2015-Mar-27 09:15N 49°60' W 002°49'911.4
2015-Mar-27 08:29N 50°02' W 002°36'4212.9
2015-Mar-27 05:14N 50°14' W 001°33'812.0
2015-Mar-27 04:33N 50°16' W 001°21'1110.9
2015-Mar-27 03:31N 50°19' W 001°04'26 8.7
2015-Mar-27 00:31N 50°26' W 000°25'13 9.2
2015-Mar-26 23:04N 50°30' W 000°05'710.1
2015-Mar-26 22:22N 50°32' E 000°06'910.8
2015-Mar-26 21:33N 50°34' E 000°19'1111.2
2015-Mar-26 20:33N 50°38' E 000°36'1111.2
2015-Mar-26 19:33N 50°45' E 000°50'1010.4
2015-Mar-26 18:33N 50°51' E 001°03'10 9.5
2015-Mar-26 17:34N 50°57' E 001°14'8 8.1
2015-Mar-26 16:34N 51°02' E 001°25'8 7.7
2015-Mar-26 15:33N 51°07' E 001°34'8 8.4
2015-Mar-26 14:33N 51°13' E 001°44'1010.3
2015-Mar-26 13:33N 51°22' E 001°52'1111.4
2015-Mar-26 12:34N 51°31' E 002°02'1110.8
2015-Mar-26 11:33N 51°39' E 002°14'87 9.6
2015-Mar-26 02:33N 52°47' E 003°42'1211.7
2015-Mar-26 01:33N 52°56' E 003°55'1211.6
2015-Mar-26 00:33N 53°03' E 004°09'2310.5
2015-Mar-25 22:23N 53°22' E 004°32'910.0
2015-Mar-25 21:31N 53°30' E 004°36'2110.3
2015-Mar-25 19:27N 53°50' E 004°47'1011.0
2015-Mar-25 18:33N 54°00' E 004°51'1111.3
2015-Mar-25 17:33N 54°10' E 004°59'21010.9
2015-Mar-24 22:16N 57°10' E 008°10'2810.1
2015-Mar-24 19:28N 57°30' E 008°48'1110.5
2015-Mar-24 18:25N 57°35' E 009°06'3210.4
2015-Mar-24 15:18N 57°48' E 010°02'810.9
2015-Mar-24 14:33N 57°48' E 010°17'1110.6
2015-Mar-24 13:33N 57°48' E 010°37'10 9.9
2015-Mar-24 12:33N 57°45' E 010°54'1111.1
2015-Mar-24 11:33N 57°37' E 011°09'1110.9
2015-Mar-24 10:33N 57°30' E 011°23'1010.2
2015-Mar-24 09:33N 57°20' E 011°31'1010.2
2015-Mar-24 08:33N 57°11' E 011°38'1010.2
2015-Mar-24 07:33N 57°01' E 011°44'1010.2
2015-Mar-24 06:33N 56°51' E 011°50'8 8.2
2015-Mar-24 05:33N 56°43' E 011°50'1110.5
2015-Mar-24 04:33N 56°36' E 011°35'2110.1
2015-Mar-24 02:29N 56°23' E 011°06'59 9.9
2015-Mar-23 20:30N 55°24' E 011°01'10 9.6
2015-Mar-23 19:25N 55°14' E 011°06'8 9.6
2015-Mar-23 18:33N 55°06' E 010°59'11 9.7
2015-Mar-23 17:24N 54°56' E 010°53'17 9.1
2015-Mar-23 15:31N 54°39' E 010°52'1010.5
2015-Mar-23 14:33N 54°36' E 011°09'1111.3
2015-Mar-23 13:34N 54°31' E 011°27'1110.7
2015-Mar-23 12:33N 54°27' E 011°44'1010.5
2015-Mar-23 11:33N 54°26' E 012°02'9 8.8
2015-Mar-23 10:33N 54°32' E 012°14'9 8.8
2015-Mar-23 09:33N 54°39' E 012°22'1010.4
2015-Mar-23 08:33N 54°45' E 012°37'1010.4
2015-Mar-23 07:33N 54°50' E 012°53'1111.2
2015-Mar-23 06:33N 54°53' E 013°11'1111.2
2015-Mar-23 05:33N 54°57' E 013°30'1111.2
2015-Mar-23 04:33N 55°01' E 013°48'1111.2
2015-Mar-23 03:33N 55°06' E 014°06'1111.2
2015-Mar-23 02:33N 55°14' E 014°18'1111.2
2015-Mar-23 01:33N 55°23' E 014°30'1110.9
2015-Mar-23 00:33N 55°30' E 014°46'1111.3
2015-Mar-22 23:33N 55°35' E 015°03'1111.4
2015-Mar-22 22:33N 55°39' E 015°22'  

Dump ship's entire track history